»·PEaware :: N867DX KSBP-KSJC

N867DX :: KSBP-KSJC

FLIGHT INFORMATION

Flight Status: Arrived
Operator: Privately registered:
United States
More flights under this callsign
Pilot: Anonymous 5456 (5456)
Aircraft: BEECH AIRCRAFT BARON
(BE58)
More flights by this aircraft type
Origin: KSBP San Luis Co Regl
United States
Destination: KSJC Mineta San Jose Intl
United States
More flights between these airports :: More routes between these airports
Route: +CREPE3 PRB V113 ROM V485 GILRO
File this flight plan on PilotEdge
Remarks:
Altitude:
(Current/Filed)
10,000ft
Speed:
(Current/Filed)
180kts
Departed: 04-Jan-18 10:20 AM
Arrived: 04-Jan-18 11:13 AM
Distance/Time
Traveled:
142nm/0:53
Distance/Time
To Go:
Arrived

Flight Plot

Page will automatically refresh every two minutes.

Flight plan parsing failed; only flown route is shown


Map Options




Map Legend


Flown Route
Filed Route
Departure Airport
Arrival Airport
Navaid (VOR, NDB)
Fix

Horizontal Profiles

Position Reports

Time Latitude Longitude Heading Altitude Ground
Speed
04-Jan-18 10:13 35.238867 -120.638654 270 214ft 0kts
04-Jan-18 10:14 35.238867 -120.638654 270 214ft 0kts
04-Jan-18 10:15 35.238867 -120.638654 270 214ft 0kts
04-Jan-18 10:16 35.238867 -120.638654 270 214ft 0kts
04-Jan-18 10:17 35.238867 -120.638654 270 214ft 0kts
04-Jan-18 10:18 35.238867 -120.638653 269 214ft 0kts
04-Jan-18 10:19 35.238867 -120.638653 270 214ft 0kts
04-Jan-18 10:20 35.238867 -120.638653 270 214ft 0kts
04-Jan-18 10:21 35.238867 -120.638653 270 214ft 0kts
04-Jan-18 10:22 35.238293 -120.638829 180 214ft 9kts
04-Jan-18 10:23 35.235675 -120.635955 126 214ft 16kts
04-Jan-18 10:24 35.233267 -120.632220 219 214ft 0kts
04-Jan-18 10:25 35.232966 -120.632493 214 214ft 6kts
04-Jan-18 10:26 35.244360 -120.653589 303 630ft 139kts
04-Jan-18 10:27 35.264767 -120.693987 302 2432ft 139kts
04-Jan-18 10:28 35.285693 -120.731978 305 4152ft 133kts
04-Jan-18 10:29 35.304255 -120.763711 305 5564ft 128kts
04-Jan-18 10:30 35.330907 -120.775657 21 6834ft 136kts
04-Jan-18 10:31 35.365694 -120.757939 15 8092ft 139kts
04-Jan-18 10:32 35.402691 -120.741686 13 9207ft 145kts
04-Jan-18 10:33 35.441894 -120.725080 14 10013ft 166kts
04-Jan-18 10:34 35.491170 -120.704225 15 10016ft 202kts
04-Jan-18 10:35 35.544265 -120.681660 15 10016ft 211kts
04-Jan-18 10:36 35.599208 -120.658355 15 10016ft 214kts
04-Jan-18 10:37 35.655471 -120.634478 15 10016ft 214kts
04-Jan-18 10:38 35.713018 -120.630339 351 10016ft 209kts
04-Jan-18 10:39 35.770820 -120.635148 351 10016ft 209kts
04-Jan-18 10:40 35.828790 -120.639836 351 10016ft 209kts
04-Jan-18 10:41 35.886663 -120.644508 351 10016ft 209kts
04-Jan-18 10:42 35.944682 -120.649197 351 10016ft 209kts
04-Jan-18 10:43 36.002724 -120.653896 351 10016ft 209kts
04-Jan-18 10:44 36.060529 -120.658582 351 10016ft 209kts
04-Jan-18 10:45 36.116295 -120.663109 351 10015ft 209kts
04-Jan-18 10:46 36.162285 -120.686638 318 10015ft 199kts
04-Jan-18 10:47 36.205998 -120.728429 317 10015ft 200kts
04-Jan-18 10:48 36.249791 -120.770702 317 10015ft 200kts
04-Jan-18 10:49 36.293324 -120.812815 317 10014ft 199kts
04-Jan-18 10:50 36.336793 -120.854926 317 10014ft 200kts
04-Jan-18 10:51 36.380528 -120.897358 317 10012ft 200kts
04-Jan-18 10:52 36.424185 -120.939786 317 10006ft 199kts
04-Jan-18 10:53 36.467806 -120.982360 317 9994ft 203kts
04-Jan-18 10:54 36.513903 -121.027164 318 9989ft 214kts
04-Jan-18 10:55 36.561134 -121.073231 317 9988ft 217kts
04-Jan-18 10:56 36.608835 -121.119877 317 9991ft 219kts
04-Jan-18 10:57 36.656934 -121.166996 317 9930ft 225kts
04-Jan-18 10:58 36.708513 -121.217847 319 8867ft 240kts
04-Jan-18 10:59 36.760782 -121.269265 321 8044ft 234kts
04-Jan-18 11:00 36.809957 -121.317392 321 8043ft 220kts
04-Jan-18 11:01 36.857235 -121.363986 321 8044ft 219kts
04-Jan-18 11:02 36.905004 -121.411164 321 8044ft 219kts
04-Jan-18 11:03 36.951312 -121.460811 317 7674ft 224kts
04-Jan-18 11:04 36.993687 -121.508934 317 6335ft 191kts
04-Jan-18 11:05 37.029819 -121.550140 317 5057ft 161kts
04-Jan-18 11:06 37.057604 -121.583042 315 4674ft 131kts
04-Jan-18 11:07 37.081117 -121.613599 323 4040ft 105kts
04-Jan-18 11:08 37.106261 -121.636569 316 4035ft 115kts
04-Jan-18 11:09 37.126440 -121.667008 313 4033ft 116kts
04-Jan-18 11:10 37.149200 -121.695285 316 4025ft 115kts
04-Jan-18 11:11 37.172786 -121.722064 316 3636ft 110kts
04-Jan-18 11:12 37.198044 -121.750298 320 3606ft 130kts
04-Jan-18 11:13 37.227129 -121.781845 319 3138ft 142kts
04-Jan-18 11:14 37.257599 -121.815053 318 2599ft 146kts
04-Jan-18 11:15 37.285304 -121.845326 318 1937ft 123kts
04-Jan-18 11:16 37.309881 -121.872206 319 1327ft 113kts
04-Jan-18 11:17 37.334546 -121.899205 319 672ft 110kts
04-Jan-18 11:18 37.356628 -121.923267 321 83ft 98kts
04-Jan-18 11:19 37.362107 -121.930881 235 65ft 0kts

Navigation Log

Ident Type
Flight plan parsing failed, navigation log unavailable